createdAt,value
2018-12-06T00:00:21.281Z,7.90
2018-12-06T00:02:50.610Z,8.40
2018-12-06T00:05:20.084Z,8.23
2018-12-06T00:08:05.782Z,9.80
2018-12-06T00:10:35.059Z,9.80
2018-12-06T00:13:03.962Z,9.90
2018-12-06T00:15:33.001Z,8.13
2018-12-06T00:18:02.025Z,8.97
2018-12-06T00:20:31.072Z,9.80
2018-12-06T00:23:00.278Z,9.87
2018-12-06T00:25:29.227Z,10.07
2018-12-06T00:27:58.349Z,10.33
2018-12-06T00:30:42.941Z,11.23
2018-12-06T00:33:11.928Z,10.03
2018-12-06T00:35:40.882Z,10.83
2018-12-06T00:38:09.981Z,11.30
2018-12-06T00:40:38.938Z,10.00
2018-12-06T00:43:07.908Z,11.60
2018-12-06T00:45:36.994Z,10.40
2018-12-06T00:48:05.937Z,11.90
2018-12-06T00:50:35.001Z,11.23
2018-12-06T00:53:04.342Z,11.30
2018-12-06T00:55:33.290Z,11.53
2018-12-06T00:58:02.177Z,12.50
2018-12-06T01:00:31.140Z,11.83
2018-12-06T01:03:00.244Z,11.63
2018-12-06T01:05:29.515Z,11.80
2018-12-06T01:07:58.872Z,12.07
2018-12-06T01:10:27.990Z,12.40
2018-12-06T01:12:57.557Z,12.67
2018-12-06T01:15:26.619Z,12.77
2018-12-06T01:17:55.643Z,12.60
2018-12-06T01:20:24.760Z,13.10
2018-12-06T01:22:54.578Z,11.93
2018-12-06T01:25:23.593Z,12.30
2018-12-06T01:27:53.198Z,12.77
2018-12-06T01:30:22.114Z,12.40
2018-12-06T01:32:51.068Z,12.00
2018-12-06T01:35:19.978Z,12.80
2018-12-06T01:37:48.890Z,12.93
2018-12-06T01:40:18.206Z,13.30
2018-12-06T01:42:47.171Z,14.27
2018-12-06T01:45:16.139Z,12.33
2018-12-06T01:47:45.064Z,12.97
2018-12-06T01:50:14.332Z,13.13
2018-12-06T01:52:44.608Z,12.80
2018-12-06T01:55:13.711Z,14.23
2018-12-06T01:57:42.603Z,13.87
2018-12-06T02:00:11.785Z,13.30
2018-12-06T02:02:40.818Z,13.57
2018-12-06T02:05:09.768Z,13.50
2018-12-06T02:07:38.984Z,14.80
2018-12-06T02:10:08.135Z,13.87
2018-12-06T02:12:37.265Z,14.40
2018-12-06T02:15:06.631Z,13.03
2018-12-06T02:17:35.613Z,15.07
2018-12-06T02:20:05.936Z,14.10
2018-12-06T02:22:35.252Z,14.97
2018-12-06T02:25:04.482Z,15.30
2018-12-06T02:27:33.425Z,15.27
2018-12-06T02:30:02.421Z,15.83
2018-12-06T02:32:32.355Z,15.30
2018-12-06T02:35:01.285Z,15.30
2018-12-06T02:37:30.224Z,15.57
2018-12-06T02:39:59.225Z,16.10
2018-12-06T02:42:28.206Z,15.63
2018-12-06T02:44:57.112Z,16.03
2018-12-06T02:47:26.305Z,15.90
2018-12-06T02:49:55.318Z,15.10
2018-12-06T02:52:25.023Z,15.23
2018-12-06T02:54:54.049Z,14.87
2018-12-06T02:57:23.069Z,17.53
2018-12-06T02:59:52.064Z,17.63
2018-12-06T03:02:21.085Z,17.77
2018-12-06T03:04:50.034Z,16.63
2018-12-06T03:07:19.136Z,17.40
2018-12-06T03:09:48.090Z,16.70
2018-12-06T03:12:17.055Z,17.10
2018-12-06T03:14:46.190Z,15.60
2018-12-06T03:17:15.550Z,15.87
2018-12-06T03:19:44.705Z,16.07
2018-12-06T03:22:13.665Z,15.80
2018-12-06T03:24:42.618Z,15.23
2018-12-06T03:27:11.634Z,16.47
2018-12-06T03:29:40.635Z,14.87
2018-12-06T03:32:10.146Z,16.10
2018-12-06T03:34:39.270Z,15.17
2018-12-06T03:37:08.703Z,15.57
2018-12-06T03:39:37.718Z,16.50
2018-12-06T03:42:07.168Z,15.40
2018-12-06T03:44:37.092Z,15.03
2018-12-06T03:47:06.053Z,16.40
2018-12-06T03:49:34.935Z,14.63
2018-12-06T03:52:03.901Z,15.53
2018-12-06T03:54:32.894Z,16.23
2018-12-06T03:57:01.954Z,16.93
2018-12-06T03:59:30.843Z,14.77
2018-12-06T04:02:00.073Z,15.77
2018-12-06T04:04:28.935Z,14.93
2018-12-06T04:06:57.934Z,16.07
2018-12-06T04:09:26.989Z,15.83
2018-12-06T04:11:56.142Z,16.67
2018-12-06T04:14:25.035Z,16.50
2018-12-06T04:16:53.990Z,17.60
2018-12-06T04:19:22.864Z,18.17
2018-12-06T04:21:52.126Z,18.37
2018-12-06T04:24:21.040Z,17.93
2018-12-06T04:26:50.292Z,17.80
2018-12-06T04:29:19.304Z,19.10
2018-12-06T04:31:48.271Z,18.10
2018-12-06T04:34:17.226Z,18.80
2018-12-06T04:36:46.289Z,17.53
2018-12-06T04:39:15.198Z,17.67
2018-12-06T04:41:44.845Z,16.47
2018-12-06T04:44:14.139Z,18.33
2018-12-06T04:46:43.148Z,18.30
2018-12-06T04:49:12.032Z,17.90
2018-12-06T04:51:41.193Z,19.50
2018-12-06T04:54:10.106Z,17.33
2018-12-06T04:56:39.080Z,17.80
2018-12-06T04:59:08.106Z,16.97
2018-12-06T05:01:37.066Z,17.20
2018-12-06T05:04:06.007Z,17.20
2018-12-06T05:06:35.222Z,17.83
2018-12-06T05:09:06.520Z,18.60
2018-12-06T05:11:35.806Z,18.00
2018-12-06T05:14:04.991Z,20.07
2018-12-06T05:16:33.940Z,20.90
2018-12-06T05:19:02.902Z,19.13
2018-12-06T05:21:31.804Z,18.87
2018-12-06T05:24:00.792Z,19.77
2018-12-06T05:26:29.761Z,19.47
2018-12-06T05:28:58.723Z,20.07
2018-12-06T05:31:27.813Z,19.53
2018-12-06T05:33:57.192Z,18.23
2018-12-06T05:36:26.224Z,19.57
2018-12-06T05:38:55.832Z,19.23
2018-12-06T05:41:24.723Z,18.47
2018-12-06T05:43:53.651Z,18.67
2018-12-06T05:46:22.587Z,18.30
2018-12-06T05:48:51.956Z,19.67
2018-12-06T05:51:20.877Z,18.47
2018-12-06T05:53:49.831Z,20.17
2018-12-06T05:56:18.883Z,19.60
2018-12-06T05:58:47.884Z,18.93
2018-12-06T06:01:17.038Z,19.67
2018-12-06T06:03:46.120Z,19.10
2018-12-06T06:06:15.065Z,19.60
2018-12-06T06:08:44.367Z,20.90
2018-12-06T06:11:13.403Z,20.00
2018-12-06T06:13:42.471Z,20.13
2018-12-06T06:16:11.956Z,19.10
2018-12-06T06:18:40.864Z,19.53
2018-12-06T06:21:09.808Z,20.60
2018-12-06T06:23:38.828Z,18.93
2018-12-06T06:26:08.515Z,19.53
2018-12-06T06:28:37.515Z,19.37
2018-12-06T06:31:06.690Z,18.53
2018-12-06T06:33:35.555Z,19.97
2018-12-06T06:36:04.661Z,20.27
2018-12-06T06:38:33.611Z,20.00
2018-12-06T06:41:02.563Z,18.43
2018-12-06T06:43:31.464Z,18.90
2018-12-06T06:46:00.427Z,20.20
2018-12-06T06:48:29.889Z,17.83
2018-12-06T06:50:58.916Z,18.50
2018-12-06T06:53:27.803Z,18.67
2018-12-06T06:55:56.911Z,20.23
2018-12-06T06:58:25.923Z,20.00
2018-12-06T07:00:54.813Z,19.27
2018-12-06T07:03:23.927Z,19.87
2018-12-06T07:05:52.932Z,20.10
2018-12-06T07:08:21.878Z,20.10
2018-12-06T07:10:50.753Z,21.23
2018-12-06T07:13:19.695Z,20.30
2018-12-06T07:15:48.646Z,20.87
2018-12-06T07:18:17.599Z,21.13
2018-12-06T07:20:46.647Z,21.00
2018-12-06T07:23:15.610Z,19.70
2018-12-06T07:25:46.476Z,21.20
2018-12-06T07:28:15.540Z,21.03
2018-12-06T07:30:44.605Z,22.50
2018-12-06T07:33:13.575Z,22.27
2018-12-06T07:35:42.654Z,21.70
2018-12-06T07:38:11.770Z,23.07
2018-12-06T07:40:40.768Z,22.80
2018-12-06T07:43:09.877Z,22.90
2018-12-06T07:45:38.818Z,23.57
2018-12-06T07:48:07.756Z,22.43
2018-12-06T07:50:36.776Z,23.90
2018-12-06T07:53:06.076Z,21.93
2018-12-06T07:55:35.200Z,22.63
2018-12-06T07:58:04.047Z,23.00
2018-12-06T08:00:33.019Z,22.10
2018-12-06T08:03:01.954Z,22.67
2018-12-06T08:05:30.983Z,22.93
2018-12-06T08:08:00.190Z,22.43
2018-12-06T08:10:29.149Z,23.30
2018-12-06T08:12:58.058Z,21.73
2018-12-06T08:15:27.378Z,21.83
2018-12-06T08:17:56.317Z,22.67
2018-12-06T08:20:25.259Z,21.53
2018-12-06T08:22:54.139Z,22.77
2018-12-06T08:25:23.172Z,22.73
2018-12-06T08:27:52.094Z,23.83
2018-12-06T08:30:21.118Z,22.30
2018-12-06T08:32:50.037Z,22.50
2018-12-06T08:35:18.976Z,23.43
2018-12-06T08:37:48.106Z,21.87
2018-12-06T08:40:17.031Z,21.20
2018-12-06T08:42:46.113Z,22.67
2018-12-06T08:45:15.225Z,22.93
2018-12-06T08:47:44.284Z,23.30
2018-12-06T08:50:13.414Z,22.53
2018-12-06T08:52:42.398Z,23.37
2018-12-06T08:55:11.437Z,23.13
2018-12-06T08:57:40.426Z,24.53
2018-12-06T09:00:11.336Z,22.60
2018-12-06T09:02:40.337Z,22.43
2018-12-06T09:05:09.579Z,23.67
2018-12-06T09:07:38.588Z,22.57
2018-12-06T09:10:08.581Z,24.60
2018-12-06T09:12:37.517Z,23.13
2018-12-06T09:15:08.260Z,23.97
2018-12-06T09:17:37.208Z,24.33
2018-12-06T09:20:06.751Z,24.50
2018-12-06T09:22:35.711Z,25.13
2018-12-06T09:25:05.472Z,25.47
2018-12-06T09:27:34.710Z,25.63
2018-12-06T09:30:04.336Z,25.23
2018-12-06T09:32:33.469Z,25.80
2018-12-06T09:35:02.483Z,24.67
2018-12-06T09:37:31.443Z,25.13
2018-12-06T09:40:00.802Z,23.77
2018-12-06T09:42:29.753Z,26.57
2018-12-06T09:44:59.160Z,26.53
2018-12-06T09:47:28.412Z,25.93
2018-12-06T09:49:57.306Z,25.60
2018-12-06T09:52:26.259Z,24.93
2018-12-06T09:54:55.172Z,24.23
2018-12-06T09:57:24.194Z,25.93
2018-12-06T09:59:53.118Z,25.70
2018-12-06T10:02:22.062Z,26.27
2018-12-06T10:04:51.016Z,26.70
2018-12-06T10:07:19.962Z,27.37
2018-12-06T10:09:49.349Z,26.63
2018-12-06T10:12:18.282Z,25.80
2018-12-06T10:14:47.176Z,26.67
2018-12-06T10:17:16.537Z,27.03
2018-12-06T10:19:45.598Z,27.87
2018-12-06T10:22:14.644Z,27.20
2018-12-06T10:24:43.587Z,25.57
2018-12-06T10:27:12.676Z,27.33
2018-12-06T10:29:41.634Z,26.97
2018-12-06T10:32:10.558Z,25.30
2018-12-06T10:34:39.667Z,26.77
2018-12-06T10:37:08.546Z,26.77
2018-12-06T10:39:37.724Z,27.33
2018-12-06T10:42:06.616Z,26.50
2018-12-06T10:44:35.510Z,24.57
2018-12-06T10:47:04.818Z,25.97
2018-12-06T10:49:33.848Z,27.40
2018-12-06T10:52:03.892Z,27.70
2018-12-06T10:54:33.009Z,27.23
2018-12-06T10:57:02.316Z,27.20
2018-12-06T10:59:31.365Z,27.50
2018-12-06T11:02:03.322Z,28.53
2018-12-06T11:04:34.171Z,24.80
2018-12-06T11:07:05.340Z,27.23
2018-12-06T11:09:34.500Z,26.33
2018-12-06T11:12:03.579Z,27.73
2018-12-06T11:14:33.252Z,27.63
2018-12-06T11:17:02.131Z,26.53
2018-12-06T11:19:31.121Z,26.47
2018-12-06T11:22:00.447Z,26.03
2018-12-06T11:24:29.540Z,26.83
2018-12-06T11:26:58.657Z,27.43
2018-12-06T11:29:27.605Z,26.17
2018-12-06T11:31:56.529Z,28.00
2018-12-06T11:34:25.475Z,27.43
2018-12-06T11:36:54.511Z,26.97
2018-12-06T11:39:24.270Z,30.33
2018-12-06T11:41:53.237Z,27.83
2018-12-06T11:44:22.154Z,27.37
2018-12-06T11:46:51.173Z,27.03
2018-12-06T11:49:20.100Z,27.77
2018-12-06T11:51:49.584Z,27.03
2018-12-06T11:54:18.497Z,27.10
2018-12-06T11:56:47.449Z,26.63
2018-12-06T11:59:16.544Z,26.63
2018-12-06T12:01:45.501Z,26.47
2018-12-06T12:04:14.539Z,25.17
2018-12-06T12:06:43.502Z,25.27
2018-12-06T12:09:12.468Z,27.23
2018-12-06T12:11:41.498Z,25.03
2018-12-06T12:14:10.398Z,25.07
2018-12-06T12:16:39.337Z,24.53
2018-12-06T12:19:08.224Z,25.20
2018-12-06T12:21:37.187Z,24.80
2018-12-06T12:24:06.181Z,23.37
2018-12-06T12:26:35.123Z,26.57
2018-12-06T12:29:04.944Z,25.80
2018-12-06T12:31:33.993Z,27.27
2018-12-06T12:34:03.003Z,25.20
2018-12-06T12:36:32.131Z,27.40
2018-12-06T12:39:01.313Z,26.40
2018-12-06T12:41:30.300Z,25.20
2018-12-06T12:43:59.220Z,26.97
2018-12-06T12:46:31.143Z,24.33
2018-12-06T12:49:00.354Z,24.60
2018-12-06T12:51:29.342Z,24.87
2018-12-06T12:53:58.271Z,25.33
2018-12-06T12:56:27.226Z,25.07
2018-12-06T12:58:56.151Z,25.77
2018-12-06T13:01:25.107Z,25.20
2018-12-06T13:03:54.138Z,25.13
2018-12-06T13:06:23.148Z,25.93
2018-12-06T13:08:52.120Z,24.67
2018-12-06T13:11:21.494Z,24.13
2018-12-06T13:13:50.524Z,23.80
2018-12-06T13:16:19.581Z,23.10
2018-12-06T13:18:48.635Z,23.30
2018-12-06T13:21:18.337Z,22.70
2018-12-06T13:23:47.330Z,23.00
2018-12-06T13:26:16.319Z,22.90
2018-12-06T13:28:45.421Z,22.67
2018-12-06T13:31:14.620Z,21.10
2018-12-06T13:33:44.234Z,23.13
2018-12-06T13:36:13.140Z,22.23
2018-12-06T13:38:42.579Z,20.90
2018-12-06T13:41:11.833Z,20.20
2018-12-06T13:43:40.817Z,19.83
2018-12-06T13:46:09.896Z,18.37
2018-12-06T13:48:39.051Z,18.93
2018-12-06T13:51:09.190Z,18.37
2018-12-06T13:53:38.153Z,18.67
2018-12-06T13:56:07.068Z,18.00
2018-12-06T13:58:36.037Z,15.90
2018-12-06T14:01:05.167Z,17.13
2018-12-06T14:03:34.758Z,16.83
2018-12-06T14:06:03.702Z,17.00
2018-12-06T14:08:32.651Z,17.27
2018-12-06T14:11:01.606Z,16.67
2018-12-06T14:13:30.583Z,16.70
2018-12-06T14:15:59.594Z,16.13
2018-12-06T14:18:28.568Z,17.10
2018-12-06T14:20:57.461Z,16.83
2018-12-06T14:23:26.794Z,16.03
2018-12-06T14:25:55.717Z,16.13
2018-12-06T14:28:24.766Z,15.00
2018-12-06T14:30:53.694Z,16.27
2018-12-06T14:33:22.675Z,16.67
2018-12-06T14:35:51.674Z,16.53
2018-12-06T14:38:20.894Z,15.97
2018-12-06T14:40:49.887Z,15.67
2018-12-06T14:43:19.058Z,17.00
2018-12-06T14:45:48.244Z,16.20
2018-12-06T14:48:17.551Z,16.77
2018-12-06T14:50:46.578Z,17.30
2018-12-06T14:53:15.931Z,17.27
2018-12-06T14:55:44.908Z,18.87
2018-12-06T14:58:13.792Z,16.97
2018-12-06T15:00:42.834Z,17.07
2018-12-06T15:03:11.811Z,18.20
2018-12-06T15:05:40.825Z,17.93
2018-12-06T15:08:10.072Z,17.90
2018-12-06T15:10:39.051Z,19.43
2018-12-06T15:13:07.965Z,18.60
2018-12-06T15:15:41.054Z,19.70
2018-12-06T15:18:10.042Z,17.87
2018-12-06T15:20:39.110Z,18.57
2018-12-06T15:23:08.039Z,18.27
2018-12-06T15:25:41.790Z,18.37
2018-12-06T15:28:07.960Z,18.97
2018-12-06T15:30:36.955Z,17.53
2018-12-06T15:33:06.023Z,18.90
2018-12-06T15:35:35.132Z,20.03
2018-12-06T15:38:04.082Z,18.83
2018-12-06T15:40:33.100Z,17.53
2018-12-06T15:43:02.054Z,18.50
2018-12-06T15:45:31.319Z,17.17
2018-12-06T15:48:00.189Z,18.20
2018-12-06T15:50:29.158Z,17.17
2018-12-06T15:52:58.107Z,17.53
2018-12-06T15:55:27.214Z,18.30
2018-12-06T15:57:56.117Z,18.33
2018-12-06T16:00:25.059Z,18.33
2018-12-06T16:02:54.468Z,18.37
2018-12-06T16:05:23.664Z,18.70
2018-12-06T16:07:52.619Z,18.07
2018-12-06T16:10:21.762Z,18.17
2018-12-06T16:12:50.658Z,16.87
2018-12-06T16:15:19.667Z,16.47
2018-12-06T16:17:48.550Z,17.17
2018-12-06T16:20:17.719Z,17.00
2018-12-06T16:22:46.722Z,18.60
2018-12-06T16:25:15.733Z,16.83
2018-12-06T16:27:44.643Z,16.87
2018-12-06T16:30:13.714Z,17.90
2018-12-06T16:32:42.759Z,17.80
2018-12-06T16:35:11.731Z,17.37
2018-12-06T16:37:40.744Z,19.00
2018-12-06T16:40:10.633Z,18.67
2018-12-06T16:42:39.652Z,18.70
2018-12-06T16:45:08.952Z,18.67
2018-12-06T16:47:38.475Z,18.00
2018-12-06T16:50:09.243Z,17.73
2018-12-06T16:52:38.206Z,18.00
2018-12-06T16:55:08.132Z,17.93
2018-12-06T16:57:37.145Z,17.23
2018-12-06T17:00:11.313Z,17.37
2018-12-06T17:02:40.430Z,17.83
2018-12-06T17:05:09.485Z,18.57
2018-12-06T17:07:38.472Z,17.87
2018-12-06T17:10:08.181Z,18.90
2018-12-06T17:12:37.103Z,17.57
2018-12-06T17:15:07.144Z,17.53
2018-12-06T17:17:36.109Z,18.70
2018-12-06T17:20:06.617Z,18.20
2018-12-06T17:22:35.577Z,18.20
2018-12-06T17:25:05.928Z,17.70
2018-12-06T17:27:35.182Z,19.07
2018-12-06T17:30:05.137Z,18.13
2018-12-06T17:32:34.373Z,19.50
2018-12-06T17:35:03.422Z,19.70
2018-12-06T17:37:32.429Z,18.97
2018-12-06T17:40:01.367Z,19.00
2018-12-06T17:42:30.359Z,18.77
2018-12-06T17:45:01.377Z,20.00
2018-12-06T17:47:30.388Z,19.30
2018-12-06T17:49:59.287Z,20.60
2018-12-06T17:52:28.280Z,20.37
2018-12-06T17:54:57.198Z,20.10
2018-12-06T17:57:26.275Z,21.03
2018-12-06T17:59:55.348Z,19.27
2018-12-06T18:02:24.714Z,20.57
2018-12-06T18:04:53.722Z,19.60
2018-12-06T18:07:22.740Z,20.27
2018-12-06T18:09:52.118Z,20.60
2018-12-06T18:12:21.143Z,20.97
2018-12-06T18:14:50.937Z,20.03
2018-12-06T18:17:20.411Z,20.57
2018-12-06T18:19:49.549Z,20.03
2018-12-06T18:22:18.597Z,19.87
2018-12-06T18:24:47.934Z,20.63
2018-12-06T18:27:18.739Z,20.67
2018-12-06T18:29:48.078Z,20.60
2018-12-06T18:32:17.012Z,19.50
2018-12-06T18:34:46.099Z,20.40
2018-12-06T18:37:15.028Z,18.53
2018-12-06T18:39:44.004Z,20.00
2018-12-06T18:42:13.685Z,19.77
2018-12-06T18:44:42.633Z,20.30
2018-12-06T18:47:12.475Z,18.20
2018-12-06T18:49:41.411Z,18.60
2018-12-06T18:52:10.447Z,20.13
2018-12-06T18:54:39.593Z,20.13
2018-12-06T18:57:08.534Z,19.63
2018-12-06T18:59:37.609Z,19.27
2018-12-06T19:02:07.295Z,20.10
2018-12-06T19:04:36.269Z,19.17
2018-12-06T19:07:05.507Z,20.43
2018-12-06T19:09:34.623Z,17.97
2018-12-06T19:12:03.746Z,19.80
2018-12-06T19:14:32.757Z,19.13
2018-12-06T19:17:01.698Z,20.20
2018-12-06T19:19:30.678Z,19.83
2018-12-06T19:22:00.307Z,21.27
2018-12-06T19:24:30.073Z,21.43
2018-12-06T19:26:59.086Z,20.03
2018-12-06T19:29:28.308Z,21.17
2018-12-06T19:31:57.876Z,22.33
2018-12-06T19:34:27.589Z,22.47
2018-12-06T19:36:56.766Z,22.77
2018-12-06T19:39:25.714Z,24.70
2018-12-06T19:41:54.709Z,22.40
2018-12-06T19:44:23.632Z,23.40
2018-12-06T19:46:52.632Z,24.10
2018-12-06T19:49:21.970Z,25.83
2018-12-06T19:51:50.931Z,25.40
2018-12-06T19:54:20.200Z,25.77
2018-12-06T19:56:49.280Z,26.33
2018-12-06T19:59:18.204Z,25.30
2018-12-06T20:01:47.238Z,26.13
2018-12-06T20:04:16.233Z,25.87
2018-12-06T20:06:45.801Z,25.33
2018-12-06T20:09:14.839Z,27.13
2018-12-06T20:11:43.874Z,27.73
2018-12-06T20:14:12.898Z,27.83
2018-12-06T20:16:42.034Z,27.57
2018-12-06T20:19:10.951Z,26.47
2018-12-06T20:21:39.926Z,27.93
2018-12-06T20:24:08.801Z,27.23
2018-12-06T20:26:37.966Z,29.13
2018-12-06T20:29:39.904Z,28.77
2018-12-06T20:32:14.691Z,29.33
2018-12-06T20:34:41.246Z,27.97
2018-12-06T20:37:10.251Z,27.97
2018-12-06T20:39:39.268Z,27.27
2018-12-06T20:42:08.235Z,29.77
2018-12-06T20:44:37.178Z,26.60
2018-12-06T20:47:06.460Z,28.47
2018-12-06T20:49:35.447Z,27.80
2018-12-06T20:52:04.664Z,25.00
2018-12-06T20:54:33.622Z,26.37
2018-12-06T20:57:02.566Z,27.20
2018-12-06T20:59:31.559Z,26.90
2018-12-06T21:02:00.571Z,26.00
2018-12-06T21:04:30.234Z,24.87
2018-12-06T21:06:59.189Z,25.73
2018-12-06T21:09:29.146Z,24.73
2018-12-06T21:11:58.027Z,25.87
2018-12-06T21:14:27.922Z,25.50
2018-12-06T21:16:56.826Z,26.03
2018-12-06T21:19:25.826Z,25.27
2018-12-06T21:21:55.054Z,23.63
2018-12-06T21:24:24.119Z,25.40
2018-12-06T21:26:53.136Z,24.50
2018-12-06T21:29:22.096Z,25.50
2018-12-06T21:31:51.135Z,23.00
2018-12-06T21:34:20.608Z,23.40
2018-12-06T21:36:49.507Z,23.93
2018-12-06T21:39:18.810Z,22.73
2018-12-06T21:41:47.734Z,23.60
2018-12-06T21:44:17.067Z,23.10
2018-12-06T21:46:46.103Z,22.40
2018-12-06T21:49:15.511Z,23.23
2018-12-06T21:51:44.479Z,22.17
2018-12-06T21:54:13.564Z,24.17
2018-12-06T21:56:42.534Z,21.50
2018-12-06T21:59:11.457Z,23.13
2018-12-06T22:01:40.512Z,21.83
2018-12-06T22:04:09.605Z,21.57
2018-12-06T22:06:38.507Z,21.43
2018-12-06T22:09:08.376Z,21.93
2018-12-06T22:11:37.541Z,20.70
2018-12-06T22:14:06.500Z,20.80
2018-12-06T22:16:35.705Z,20.53
2018-12-06T22:19:04.661Z,21.60
2018-12-06T22:21:33.585Z,21.23
2018-12-06T22:24:02.576Z,20.57
2018-12-06T22:26:31.625Z,21.60
2018-12-06T22:29:00.633Z,21.97
2018-12-06T22:31:29.781Z,22.53
2018-12-06T22:33:58.733Z,20.53
2018-12-06T22:36:27.782Z,21.43
2018-12-06T22:38:56.652Z,21.23
2018-12-06T22:41:25.759Z,21.00
2018-12-06T22:43:55.217Z,18.37
2018-12-06T22:46:24.276Z,18.97
2018-12-06T22:48:53.344Z,20.93
2018-12-06T22:51:25.531Z,20.73
2018-12-06T22:53:55.098Z,22.13
2018-12-06T22:56:24.199Z,23.17
2018-12-06T22:58:53.587Z,23.43
2018-12-06T23:01:28.685Z,23.70
2018-12-06T23:03:57.977Z,23.73
2018-12-06T23:06:27.020Z,22.13
2018-12-06T23:08:58.018Z,23.43
2018-12-06T23:11:29.089Z,22.70
2018-12-06T23:13:58.337Z,22.07
2018-12-06T23:16:27.909Z,21.63
2018-12-06T23:18:57.007Z,21.57
2018-12-06T23:21:27.875Z,20.97
2018-12-06T23:23:57.043Z,19.87
2018-12-06T23:26:26.104Z,18.50
2018-12-06T23:28:55.024Z,19.53
2018-12-06T23:31:24.170Z,19.00
2018-12-06T23:33:53.396Z,18.67
2018-12-06T23:36:22.754Z,17.77
2018-12-06T23:38:51.791Z,16.67
2018-12-06T23:41:21.307Z,18.40
2018-12-06T23:43:50.277Z,17.13
2018-12-06T23:46:19.314Z,15.83
2018-12-06T23:48:48.244Z,15.90
2018-12-06T23:51:34.718Z,14.63
2018-12-06T23:54:04.113Z,14.57
2018-12-06T23:56:33.081Z,15.47
2018-12-06T23:59:02.239Z,15.37
